Time;durP1;ratioP1;P1;durP2;ratioP2;P2;SDS_P1;SDS_P2;PMS_P1;PMS_P2;Temp;Humidity;BMP_temperature;BMP_pressure;BME280_temperature;BME280_humidity;BME280_pressure;Samples;Min_cycle;Max_cycle;Signal;HPM_P1;HPM_P2
2022/06/10 00:02:15;;;;;;;3.20;1.00;;;;;;;21.25;48.97;102006.59;5127906;28;20028;-65
2022/06/10 00:04:40;;;;;;;2.13;1.10;;;;;;;21.26;48.85;102003.72;5119502;28;20032;-63
2022/06/10 00:07:06;;;;;;;1.83;0.88;;;;;;;21.26;48.90;102006.41;5107370;28;20070;-63
2022/06/10 00:09:32;;;;;;;3.33;1.25;;;;;;;21.26;49.17;102003.72;5107305;28;20116;-62
2022/06/10 00:11:57;;;;;;;2.50;0.80;;;;;;;21.25;49.02;102002.03;5126337;28;20028;-63
2022/06/10 00:14:23;;;;;;;2.15;1.08;;;;;;;21.25;48.98;101998.47;5127286;28;20039;-64
2022/06/10 00:16:48;;;;;;;1.52;0.80;;;;;;;21.24;49.10;102005.75;5127790;28;20020;-63
2022/06/10 00:19:13;;;;;;;2.33;1.20;;;;;;;21.24;49.28;102011.16;5127783;28;20112;-64
2022/06/10 00:21:38;;;;;;;1.30;0.82;;;;;;;21.23;49.03;102012.13;5127456;28;20110;-64
2022/06/10 00:24:04;;;;;;;2.22;1.00;;;;;;;21.22;48.85;102003.19;5112548;28;20092;-63
2022/06/10 00:26:29;;;;;;;3.47;1.00;;;;;;;21.23;48.64;102001.31;5107011;28;20042;-63
2022/06/10 00:28:54;;;;;;;3.22;0.98;;;;;;;21.20;48.78;101996.25;5106608;28;20091;-64
2022/06/10 00:31:20;;;;;;;3.42;1.67;;;;;;;21.22;48.66;102005.03;5108193;28;20473;-64
2022/06/10 00:33:45;;;;;;;4.40;1.73;;;;;;;21.22;49.15;101997.75;5088681;28;20038;-63
2022/06/10 00:36:10;;;;;;;2.95;1.02;;;;;;;21.22;48.87;102005.88;5106932;28;20422;-63
2022/06/10 00:38:36;;;;;;;3.92;1.25;;;;;;;21.21;49.15;102000.63;5106813;28;20027;-63
2022/06/10 00:41:02;;;;;;;3.42;1.27;;;;;;;21.22;48.71;102002.34;5106412;28;20093;-63
2022/06/10 00:43:33;;;;;;;1.85;0.98;;;;;;;21.22;48.96;102005.03;5105988;28;20026;-64
2022/06/10 00:46:33;;;;;;;2.60;0.93;;;;;;;21.21;48.73;101998.78;5106982;28;20020;-64
2022/06/10 00:49:05;;;;;;;3.03;1.27;;;;;;;21.21;48.97;101998.78;5088580;28;20024;-64
2022/06/10 00:51:38;;;;;;;2.05;0.90;;;;;;;21.21;48.91;101997.94;5106076;28;20024;-63
2022/06/10 00:54:15;;;;;;;2.00;0.88;;;;;;;21.20;48.73;101994.38;5117355;28;20073;-63
2022/06/10 00:56:45;;;;;;;2.60;0.90;;;;;;;21.20;48.86;101993.53;5126872;28;20043;-63
2022/06/10 00:59:14;;;;;;;3.30;1.30;;;;;;;21.18;48.79;101990.97;5108275;28;20023;-64
2022/06/10 01:01:40;;;;;;;1.70;0.80;;;;;;;21.17;48.49;101997.41;5121253;28;20035;-63
2022/06/10 01:04:05;;;;;;;2.42;0.95;;;;;;;21.18;48.76;101996.38;5098877;28;20024;-63
2022/06/10 01:06:31;;;;;;;2.55;1.00;;;;;;;21.17;48.90;101991.16;5119189;28;20020;-63
2022/06/10 01:08:58;;;;;;;1.92;1.00;;;;;;;21.17;48.58;101996.56;5106109;28;20024;-63
2022/06/10 01:11:48;;;;;;;3.70;1.00;;;;;;;21.00;48.48;101964.97;5100734;28;20522;-63
2022/06/10 01:14:27;;;;;;;3.17;1.08;;;;;;;21.09;48.25;101978.41;5126081;28;20034;-63
2022/06/10 01:17:01;;;;;;;;;;;;;;;21.14;48.69;101995.00;5126947;28;20075;-63
2022/06/10 01:19:51;;;;;;;3.00;1.10;;;;;;;21.14;48.33;101994.16;5117784;28;19929;-63
2022/06/10 01:22:19;;;;;;;2.22;1.00;;;;;;;21.13;48.47;101987.91;5106048;28;20046;-63
2022/06/10 01:25:11;;;;;;;3.37;1.07;;;;;;;21.12;48.54;101990.78;5106090;28;20043;-63
2022/06/10 01:27:49;;;;;;;3.08;0.82;;;;;;;21.12;48.01;101988.06;5105612;28;20035;-63
2022/06/10 01:30:35;;;;;;;2.03;0.98;;;;;;;21.11;48.10;101983.63;5126222;28;20015;-63
2022/06/10 01:33:12;;;;;;;2.25;1.10;;;;;;;21.10;48.47;101982.78;5108113;28;20027;-62
2022/06/10 01:35:52;;;;;;;2.08;0.80;;;;;;;21.11;48.46;101986.34;5106635;28;20035;-63
2022/06/10 01:38:25;;;;;;;2.50;0.85;;;;;;;21.10;48.36;101988.19;5087404;28;20023;-63
2022/06/10 01:41:27;;;;;;;2.72;1.20;;;;;;;21.10;47.97;101985.50;5087211;28;20044;-63
2022/06/10 01:44:09;;;;;;;3.63;1.10;;;;;;;21.09;47.71;101982.97;5006373;28;20038;-63
2022/06/10 01:46:37;;;;;;;2.00;1.17;;;;;;;21.08;47.81;101984.81;5023493;28;20529;-63
2022/06/10 01:49:10;;;;;;;1.38;0.88;;;;;;;21.07;47.63;101985.84;5023324;28;20061;-63
2022/06/10 01:52:00;;;;;;;2.75;0.80;;;;;;;21.04;47.88;101978.03;5006849;28;20029;-63
2022/06/10 01:54:31;;;;;;;3.25;1.05;;;;;;;21.06;47.59;101986.81;5006864;28;20080;-62
2022/06/10 01:56:58;;;;;;;2.63;1.05;;;;;;;21.05;47.85;101987.84;5006779;28;20029;-63
2022/06/10 01:59:37;;;;;;;2.72;1.17;;;;;;;21.05;47.54;101976.16;5006419;28;20018;-63
2022/06/10 02:02:09;;;;;;;3.08;1.10;;;;;;;21.05;47.67;101977.00;5006095;28;20065;-63
2022/06/10 02:04:41;;;;;;;2.42;1.05;;;;;;;20.97;47.40;101972.38;5006915;28;20558;-63
2022/06/10 02:07:13;;;;;;;2.22;0.80;;;;;;;21.04;47.51;101983.44;5006680;28;20034;-63
2022/06/10 02:09:46;;;;;;;1.88;0.90;;;;;;;21.02;47.13;101981.88;5006767;28;20030;-62
2022/06/10 02:12:20;;;;;;;4.40;1.25;;;;;;;21.03;47.31;101986.31;5042438;28;20037;-62
2022/06/10 02:14:53;;;;;;;1.55;0.80;;;;;;;21.04;47.38;101990.69;5022607;28;20049;-62
2022/06/10 02:17:21;;;;;;;3.55;1.30;;;;;;;21.02;47.12;101990.84;5006674;28;20577;-62
2022/06/10 02:19:50;;;;;;;2.30;1.10;;;;;;;21.00;46.90;101989.31;5018353;28;20070;-62
2022/06/10 02:22:24;;;;;;;2.47;1.05;;;;;;;21.02;47.02;101985.44;5105096;28;20031;-62
2022/06/10 02:24:54;;;;;;;2.33;1.10;;;;;;;21.01;46.95;101988.31;5105532;28;20024;-62
2022/06/10 02:27:23;;;;;;;3.60;0.95;;;;;;;20.93;46.76;101978.25;5104985;28;20036;-63
2022/06/10 02:30:10;;;;;;;0.90;0.75;;;;;;;21.00;46.88;101990.16;5086933;28;20024;-63
2022/06/10 02:32:37;;;;;;;3.15;1.08;;;;;;;20.99;46.96;101988.47;5105318;28;20115;-63
2022/06/10 02:35:03;;;;;;;3.80;1.10;;;;;;;20.99;46.83;101990.31;5087190;28;20546;-63
2022/06/10 02:38:09;;;;;;;3.00;1.13;;;;;;;20.99;46.88;101990.31;5087081;28;20111;-63
2022/06/10 02:40:41;;;;;;;2.10;0.88;;;;;;;20.97;46.70;101990.47;5096898;28;20378;-63
2022/06/10 02:43:15;;;;;;;4.43;0.98;;;;;;;20.96;47.04;101991.47;5086108;28;20031;-62
2022/06/10 02:45:52;;;;;;;2.80;1.08;;;;;;;20.96;46.84;101999.59;5105414;28;20032;-63
2022/06/10 02:48:34;;;;;;;2.50;0.90;;;;;;;20.95;46.65;102003.31;5086957;28;20035;-63
2022/06/10 02:51:00;;;;;;;3.67;1.40;;;;;;;20.90;46.43;101992.13;5086776;28;20066;-63
2022/06/10 02:53:25;;;;;;;2.10;1.00;;;;;;;20.91;46.56;101996.50;5104731;28;20036;-62
2022/06/10 02:55:50;;;;;;;2.35;1.02;;;;;;;20.93;46.58;101994.47;5086949;28;20028;-63
2022/06/10 03:01:20;;;;;;;2.63;1.70;;;;;;;20.91;46.69;101997.34;5105149;28;20055;-63
2022/06/10 03:03:48;;;;;;;2.47;1.40;;;;;;;20.91;46.37;101991.94;5105122;28;20032;-63
2022/06/10 03:06:32;;;;;;;2.92;1.00;;;;;;;20.91;46.50;101986.53;5104665;28;20028;-63
2022/06/10 03:09:10;;;;;;;2.53;1.10;;;;;;;20.90;46.31;101992.13;5104713;28;20043;-63
2022/06/10 03:11:39;;;;;;;3.67;1.40;;;;;;;20.87;46.45;101989.72;5103151;28;20023;-63
2022/06/10 03:14:29;;;;;;;4.47;1.52;;;;;;;20.90;46.45;101997.53;5106133;28;20084;-62
2022/06/10 03:17:10;;;;;;;2.38;1.02;;;;;;;20.88;46.52;101989.53;5108623;28;20024;-63
2022/06/10 03:20:02;;;;;;;2.95;1.27;;;;;;;20.89;46.27;101987.69;5090160;28;20050;-62
2022/06/10 03:22:38;;;;;;;2.78;1.00;;;;;;;20.88;46.46;101988.69;5090089;28;20027;-62
2022/06/10 03:25:24;;;;;;;4.80;1.73;;;;;;;20.87;46.40;101995.97;5090361;28;20028;-63
2022/06/10 03:28:01;;;;;;;1.75;1.25;;;;;;;20.86;46.54;101985.31;5107862;28;20074;-63
2022/06/10 03:30:31;;;;;;;2.58;1.40;;;;;;;20.86;46.39;101994.28;5073205;28;20031;-62
2022/06/10 03:33:14;;;;;;;2.45;1.20;;;;;;;20.85;46.65;101991.72;5090522;28;20047;-63
2022/06/10 03:35:44;;;;;;;2.10;1.25;;;;;;;20.85;46.78;101980.91;5108382;28;20027;-63
2022/06/10 03:38:10;;;;;;;2.30;1.10;;;;;;;20.83;46.80;101983.75;5090012;28;20091;-63
2022/06/10 03:40:35;;;;;;;2.88;1.13;;;;;;;20.84;46.59;101982.75;5089845;28;20044;-63
2022/06/10 03:43:07;;;;;;;1.95;1.10;;;;;;;20.86;46.41;101993.44;5107315;28;20028;-63
2022/06/10 03:45:37;;;;;;;3.05;1.85;;;;;;;20.85;46.42;101992.56;5107952;28;20030;-63
2022/06/10 03:48:03;;;;;;;5.07;1.48;;;;;;;20.85;46.40;101997.97;5089966;28;20028;-62
2022/06/10 03:50:31;;;;;;;4.72;1.30;;;;;;;20.86;46.84;101996.13;5089753;28;20020;-62
2022/06/10 03:52:57;;;;;;;3.92;1.42;;;;;;;20.84;46.63;101998.97;5107535;28;20016;-62
2022/06/10 03:55:22;;;;;;;2.97;1.27;;;;;;;20.86;46.76;101998.84;5107723;28;20038;-63
2022/06/10 03:57:48;;;;;;;3.47;1.10;;;;;;;20.84;46.90;102004.38;5106962;28;20020;-64
2022/06/10 04:00:16;;;;;;;2.08;1.08;;;;;;;20.85;47.49;102008.78;5107489;28;20020;-62
2022/06/10 04:02:41;;;;;;;2.05;1.05;;;;;;;20.85;47.12;102014.19;5107463;28;20111;-62
2022/06/10 04:05:08;;;;;;;2.13;1.20;;;;;;;20.86;47.58;102006.94;5107519;28;20093;-62
2022/06/10 04:07:33;;;;;;;3.03;1.35;;;;;;;20.86;47.47;102012.34;5107570;28;20024;-62
2022/06/10 04:09:58;;;;;;;3.30;1.40;;;;;;;20.84;47.14;102014.34;5110439;28;20498;-62
2022/06/10 04:12:25;;;;;;;1.48;1.00;;;;;;;20.86;47.35;102015.91;5127288;28;20036;-61
2022/06/10 04:14:51;;;;;;;2.05;1.00;;;;;;;20.87;47.58;102011.34;5112548;28;20032;-64
2022/06/10 04:17:16;;;;;;;3.33;1.35;;;;;;;20.86;47.42;102018.59;5107393;28;20039;-61
2022/06/10 04:19:42;;;;;;;2.45;1.13;;;;;;;20.87;47.47;102024.84;5107326;28;20024;-61
2022/06/10 04:22:07;;;;;;;4.15;1.10;;;;;;;20.86;47.40;102028.56;5088911;28;20024;-63
2022/06/10 04:24:32;;;;;;;1.80;1.02;;;;;;;20.85;47.46;102025.00;5106987;28;20035;-63
2022/06/10 04:26:57;;;;;;;2.90;1.20;;;;;;;20.84;47.11;102033.25;5106901;28;20028;-64
2022/06/10 04:29:23;;;;;;;3.00;1.10;;;;;;;20.84;47.24;102041.38;5106850;28;20024;-64
2022/06/10 04:31:48;;;;;;;2.95;1.02;;;;;;;20.83;47.60;102037.81;5106859;28;20032;-63
2022/06/10 04:34:14;;;;;;;3.20;0.98;;;;;;;20.82;47.51;102041.53;5107063;28;20020;-63
2022/06/10 04:36:40;;;;;;;2.28;0.95;;;;;;;20.84;47.72;102042.22;5089128;28;20468;-63
2022/06/10 04:39:06;;;;;;;2.38;1.00;;;;;;;20.84;47.91;102046.78;5106977;28;20024;-63
2022/06/10 04:41:31;;;;;;;2.60;1.13;;;;;;;20.85;47.59;102043.91;5106479;28;20040;-59
2022/06/10 04:43:56;;;;;;;2.83;1.00;;;;;;;20.85;47.69;102053.88;5111120;28;20052;-63
2022/06/10 04:46:37;;;;;;;4.72;1.30;;;;;;;20.86;47.58;102050.19;5121523;28;20555;-63
2022/06/10 04:49:03;;;;;;;2.90;1.10;;;;;;;20.84;47.86;102049.47;5127172;28;20019;-63
2022/06/10 04:51:29;;;;;;;2.70;1.20;;;;;;;20.83;48.27;102048.63;5126855;28;20051;-64
2022/06/10 04:53:55;;;;;;;4.18;1.25;;;;;;;20.84;47.72;102046.78;5126987;28;20019;-64
2022/06/10 04:56:20;;;;;;;2.13;1.10;;;;;;;20.82;48.14;102044.25;5126898;28;20092;-63
2022/06/10 04:58:45;;;;;;;3.17;1.33;;;;;;;20.84;48.14;102038.66;5126392;28;20051;-63
2022/06/10 05:01:11;;;;;;;3.15;1.38;;;;;;;20.84;48.30;102047.63;5108803;28;20020;-64
2022/06/10 05:03:36;;;;;;;2.50;1.10;;;;;;;20.78;48.51;102026.63;5126247;28;20083;-63
2022/06/10 05:06:03;;;;;;;2.42;1.10;;;;;;;20.84;48.44;102044.06;5124901;28;20456;-62
2022/06/10 05:08:28;;;;;;;2.88;1.02;;;;;;;20.83;48.29;102048.63;5105869;28;20079;-63
2022/06/10 05:10:53;;;;;;;2.20;1.00;;;;;;;20.65;48.52;102010.78;5116824;28;20043;-63
2022/06/10 05:13:20;;;;;;;1.65;1.10;;;;;;;20.83;48.46;102047.78;5121485;28;20028;-63
2022/06/10 05:15:46;;;;;;;2.30;1.08;;;;;;;20.84;49.03;102044.06;5106200;28;20030;-62
2022/06/10 05:18:17;;;;;;;2.25;1.20;;;;;;;20.83;48.85;102047.78;5106057;28;20089;-63
2022/06/10 05:20:43;;;;;;;2.08;1.00;;;;;;;20.82;49.53;102046.94;5106102;28;20024;-64
2022/06/10 05:23:11;;;;;;;2.05;1.30;;;;;;;20.83;49.27;102047.78;5105679;28;20039;-63
2022/06/10 05:25:37;;;;;;;2.28;1.05;;;;;;;20.83;49.66;102053.19;5106131;28;20024;-63
2022/06/10 05:28:02;;;;;;;2.40;1.08;;;;;;;20.83;49.12;102056.75;5105668;28;20133;-63
2022/06/10 05:30:30;;;;;;;2.38;1.10;;;;;;;20.83;49.51;102055.91;5105791;28;20036;-63
2022/06/10 05:32:56;;;;;;;2.08;0.95;;;;;;;20.83;49.39;102056.75;5105840;28;20054;-63
2022/06/10 05:35:22;;;;;;;2.00;1.00;;;;;;;20.81;49.39;102058.72;5106336;28;20028;-63
2022/06/10 05:37:48;;;;;;;2.67;1.20;;;;;;;20.82;49.00;102060.47;5106022;28;20107;-62
2022/06/10 05:40:14;;;;;;;1.92;0.77;;;;;;;20.82;48.89;102060.47;5087274;28;20028;-63
2022/06/10 05:42:39;;;;;;;3.10;1.35;;;;;;;20.81;49.13;102056.03;5105051;28;20431;-63
2022/06/10 05:45:05;;;;;;;2.85;1.20;;;;;;;20.82;49.39;102059.63;5124000;28;20034;-63
2022/06/10 05:47:33;;;;;;;2.33;0.80;;;;;;;20.82;49.40;102055.06;5125944;28;20024;-63
2022/06/10 05:50:00;;;;;;;2.67;1.35;;;;;;;20.81;49.61;102053.31;5126036;28;20039;-63
2022/06/10 05:52:28;;;;;;;1.77;0.90;;;;;;;20.82;49.61;102054.22;5124227;28;20031;-63
2022/06/10 05:54:56;;;;;;;3.95;1.27;;;;;;;20.83;49.57;102058.59;5125962;28;20022;-63
2022/06/10 05:57:22;;;;;;;3.17;1.02;;;;;;;20.84;49.59;102060.28;5125848;28;20023;-63
2022/06/10 05:59:49;;;;;;;4.20;1.45;;;;;;;20.85;50.15;102059.28;5125600;28;20054;-63
2022/06/10 06:02:15;;;;;;;1.92;0.93;;;;;;;20.85;50.17;102056.59;5125585;28;20019;-63
2022/06/10 06:04:41;;;;;;;2.80;0.80;;;;;;;20.82;49.91;102052.34;5125929;28;20063;-63
2022/06/10 06:07:06;;;;;;;3.80;1.27;;;;;;;20.85;49.92;102054.72;5125898;28;20090;-62
2022/06/10 06:09:32;;;;;;;2.35;1.02;;;;;;;20.85;49.83;102057.44;5125688;28;20035;-63
2022/06/10 06:11:58;;;;;;;1.65;0.80;;;;;;;20.85;49.90;102060.13;5105344;28;20034;-63
2022/06/10 06:14:25;;;;;;;2.50;1.00;;;;;;;20.86;50.15;102061.00;5105231;28;20043;-63
2022/06/10 06:16:53;;;;;;;2.97;1.30;;;;;;;20.85;50.11;102062.00;5105678;28;20032;-63
2022/06/10 06:19:19;;;;;;;2.13;1.10;;;;;;;20.78;49.92;102055.53;5105889;28;20020;-63
2022/06/10 06:21:45;;;;;;;2.45;1.15;;;;;;;20.86;50.00;102069.97;5087152;28;20065;-62
2022/06/10 06:24:10;;;;;;;2.20;0.90;;;;;;;20.86;49.76;102069.97;5105067;28;20040;-63
2022/06/10 06:26:35;;;;;;;1.95;0.95;;;;;;;20.87;49.92;102068.09;5105102;28;20111;-63
2022/06/10 06:29:01;;;;;;;2.00;0.88;;;;;;;20.87;50.29;102074.38;5104667;28;20024;-63
2022/06/10 06:31:26;;;;;;;2.35;1.17;;;;;;;20.87;50.24;102071.66;5105098;28;20428;-63
2022/06/10 06:33:51;;;;;;;2.63;1.38;;;;;;;20.87;50.08;102065.41;5104947;28;20073;-63
2022/06/10 06:36:23;;;;;;;3.65;1.20;;;;;;;20.87;50.08;102060.84;5104979;28;20066;-63
2022/06/10 06:38:49;;;;;;;2.25;0.93;;;;;;;20.86;50.17;102067.25;5086806;28;20020;-63
2022/06/10 06:41:15;;;;;;;2.35;1.10;;;;;;;20.88;50.16;102072.50;5086767;28;20047;-63
2022/06/10 06:43:40;;;;;;;1.55;0.80;;;;;;;20.83;49.74;102061.31;5110457;28;20436;-63
2022/06/10 06:46:05;;;;;;;2.38;0.90;;;;;;;20.87;50.06;102068.09;5125145;28;20081;-62
2022/06/10 06:48:31;;;;;;;2.97;1.08;;;;;;;20.88;50.11;102076.06;5126390;28;20088;-63
2022/06/10 06:50:56;;;;;;;2.80;1.08;;;;;;;20.87;50.03;102070.81;5129146;28;20019;-63
2022/06/10 06:53:22;;;;;;;3.33;1.20;;;;;;;20.87;49.87;102068.97;5129296;28;20036;-63
2022/06/10 06:55:47;;;;;;;1.90;0.70;;;;;;;20.88;50.31;102072.50;5129290;28;20027;-63
2022/06/10 06:58:16;;;;;;;2.70;0.93;;;;;;;20.88;49.96;102076.06;5128842;28;20028;-62
2022/06/10 07:00:41;;;;;;;3.15;1.38;;;;;;;20.88;49.82;102067.09;5128653;28;20487;-63
2022/06/10 07:03:07;;;;;;;2.58;0.90;;;;;;;20.87;50.24;102073.50;5128941;28;20023;-63
2022/06/10 07:05:33;;;;;;;4.68;1.33;;;;;;;20.76;50.04;102052.09;5129306;28;20028;-63
2022/06/10 07:07:59;;;;;;;2.60;0.90;;;;;;;20.89;49.86;102087.72;5110917;28;20036;-63
2022/06/10 07:10:24;;;;;;;2.03;0.90;;;;;;;20.88;50.06;102086.88;5121990;28;20031;-63
2022/06/10 07:12:50;;;;;;;3.13;1.10;;;;;;;20.89;50.08;102071.50;5107888;28;20058;-63
2022/06/10 07:15:16;;;;;;;1.77;0.95;;;;;;;20.89;50.15;102080.44;5090341;28;20020;-63
2022/06/10 07:17:42;;;;;;;4.05;1.35;;;;;;;20.90;50.12;102073.22;5108584;28;20035;-63
2022/06/10 07:20:08;;;;;;;1.05;0.80;;;;;;;20.89;50.14;102085.00;5108197;28;20034;-63
2022/06/10 07:22:33;;;;;;;1.98;0.93;;;;;;;20.85;50.17;102080.91;5108226;28;20035;-63
2022/06/10 07:24:59;;;;;;;2.25;0.88;;;;;;;20.90;50.32;102089.44;5090084;28;20028;-63
2022/06/10 07:27:24;;;;;;;2.25;0.90;;;;;;;20.90;49.85;102081.31;5108353;28;20032;-63
2022/06/10 07:29:50;;;;;;;2.38;1.10;;;;;;;20.88;50.03;102086.03;5107981;28;20035;-63
2022/06/10 07:32:15;;;;;;;2.42;1.05;;;;;;;20.90;50.42;102097.53;5107911;28;20031;-63
2022/06/10 07:34:41;;;;;;;2.08;0.95;;;;;;;20.90;49.89;102092.13;5107960;28;20032;-63
2022/06/10 07:37:06;;;;;;;2.65;1.33;;;;;;;20.90;50.18;102094.84;5108037;28;20087;-63
2022/06/10 07:39:34;;;;;;;2.13;0.95;;;;;;;20.89;50.23;102096.66;5107885;28;20028;-63
2022/06/10 07:42:00;;;;;;;2.38;1.00;;;;;;;20.90;50.17;102100.25;5107570;28;20108;-62
2022/06/10 07:44:36;;;;;;;2.58;1.10;;;;;;;20.89;49.80;102099.38;5107524;28;20036;-62
2022/06/10 07:47:07;;;;;;;1.98;0.93;;;;;;;20.88;49.87;102086.88;5106520;28;20043;-63
2022/06/10 07:49:32;;;;;;;1.65;1.05;;;;;;;20.87;49.83;102087.88;5089422;28;20024;-63
2022/06/10 07:51:58;;;;;;;3.38;1.10;;;;;;;20.84;50.13;102085.47;5107785;28;20035;-63
2022/06/10 07:54:23;;;;;;;1.52;0.93;;;;;;;20.88;50.09;102086.03;5107479;28;20115;-63
2022/06/10 07:56:48;;;;;;;1.95;0.77;;;;;;;20.88;50.25;102097.69;5107775;28;20054;-63
2022/06/10 07:59:14;;;;;;;4.72;1.38;;;;;;;20.88;50.13;102092.28;5106959;28;20020;-63
2022/06/10 08:01:40;;;;;;;3.50;1.40;;;;;;;20.88;50.29;102097.69;5088783;28;20110;-63
2022/06/10 08:04:06;;;;;;;3.22;1.35;;;;;;;20.89;50.34;102095.81;5107420;28;20032;-63
2022/06/10 08:06:33;;;;;;;2.15;1.00;;;;;;;20.91;50.43;102093.84;5107627;28;20036;-63
2022/06/10 08:08:58;;;;;;;3.13;1.10;;;;;;;20.90;50.21;102097.53;5107320;28;20077;-62
2022/06/10 08:11:23;;;;;;;3.10;0.93;;;;;;;20.91;50.37;102100.09;5122271;28;20031;-63
2022/06/10 08:13:49;;;;;;;3.03;1.23;;;;;;;20.92;50.32;102095.53;5126160;28;20035;-63
2022/06/10 08:16:14;;;;;;;2.78;1.50;;;;;;;20.92;50.26;102103.63;5127777;28;20048;-63
2022/06/10 08:18:41;;;;;;;1.75;0.95;;;;;;;20.92;49.92;102100.94;5109196;28;20233;-63
2022/06/10 08:23:50;;;;;;;1.45;0.90;;;;;;;20.87;50.31;102093.28;5127589;28;20392;-63
2022/06/10 08:26:16;;;;;;;2.88;1.00;;;;;;;20.91;49.88;102097.38;5127386;28;20032;-63
2022/06/10 08:28:44;;;;;;;3.42;1.15;;;;;;;20.91;49.95;102096.53;5127281;28;20028;-63
2022/06/10 08:31:09;;;;;;;1.77;1.17;;;;;;;20.91;49.82;102093.84;5109132;28;20027;-63
2022/06/10 08:33:35;;;;;;;2.28;1.00;;;;;;;20.92;50.25;102101.78;5127548;28;20019;-63
2022/06/10 08:36:01;;;;;;;3.75;1.15;;;;;;;20.91;49.99;102091.97;5127391;28;20057;-63
2022/06/10 08:38:26;;;;;;;2.05;1.00;;;;;;;20.92;49.88;102093.66;5127417;28;20449;-62
2022/06/10 08:40:59;;;;;;;3.75;2.22;;;;;;;20.95;49.91;102095.22;5091684;28;20035;-63
2022/06/10 08:43:43;;;;;;;3.42;1.30;;;;;;;20.95;49.76;102096.06;5117630;28;20519;-62
2022/06/10 08:46:30;;;;;;;3.03;1.00;;;;;;;20.98;49.94;102084.09;5106876;28;20043;-63
2022/06/10 08:49:06;;;;;;;2.58;1.00;;;;;;;20.97;50.00;102085.09;5088585;28;20024;-63
2022/06/10 08:51:41;;;;;;;4.30;1.35;;;;;;;20.99;50.05;102076.84;5112966;28;20031;-63
2022/06/10 08:54:14;;;;;;;4.95;1.45;;;;;;;21.01;49.91;102080.22;5127132;28;20569;-63
2022/06/10 08:56:53;;;;;;;2.53;1.15;;;;;;;21.02;49.82;102081.94;5108728;28;20032;-63
2022/06/10 08:59:29;;;;;;;3.65;1.00;;;;;;;21.03;49.75;102075.53;5126586;28;20049;-63
2022/06/10 09:02:34;;;;;;;3.30;1.10;;;;;;;21.04;49.97;102064.56;5126841;28;20028;-63
2022/06/10 09:05:06;;;;;;;2.35;0.90;;;;;;;21.05;49.84;102066.25;5096403;28;20055;-63
2022/06/10 09:07:42;;;;;;;2.28;1.25;;;;;;;21.07;49.71;102071.50;5126806;28;20024;-63
2022/06/10 09:10:19;;;;;;;4.38;1.10;;;;;;;20.95;49.79;102050.13;5103566;28;20024;-63
2022/06/10 09:12:56;;;;;;;2.95;1.00;;;;;;;21.07;49.66;102060.69;5106003;28;20028;-63
2022/06/10 09:15:23;;;;;;;1.85;0.85;;;;;;;21.06;49.77;102064.38;5106009;28;20411;-63
2022/06/10 09:17:56;;;;;;;3.00;1.05;;;;;;;21.08;50.13;102062.41;5088087;28;20031;-63
2022/06/10 09:20:30;;;;;;;4.63;1.30;;;;;;;21.08;49.94;102063.25;5087887;28;20043;-63
2022/06/10 09:22:58;;;;;;;2.53;0.70;;;;;;;21.09;50.05;102062.22;5087995;28;20397;-63
2022/06/10 09:25:32;;;;;;;2.45;0.80;;;;;;;21.01;49.99;102047.78;5088981;28;20150;-63
2022/06/10 09:27:59;;;;;;;2.90;0.90;;;;;;;21.10;50.15;102065.78;5087655;28;20031;-63
2022/06/10 09:30:31;;;;;;;2.85;1.55;;;;;;;21.09;49.77;102062.22;5087731;28;20093;-62
2022/06/10 09:33:17;;;;;;;3.85;1.38;;;;;;;21.13;49.77;102060.06;5087947;28;20028;-63
2022/06/10 09:35:51;;;;;;;2.88;0.90;;;;;;;21.12;49.93;102072.75;5105968;28;20024;-63
2022/06/10 09:38:21;;;;;;;2.30;1.02;;;;;;;21.12;49.86;102059.22;5105924;28;20031;-63
2022/06/10 09:41:08;;;;;;;3.25;1.20;;;;;;;21.09;49.69;102058.69;5105274;28;20036;-63
2022/06/10 09:43:49;;;;;;;2.65;0.88;;;;;;;21.04;49.66;102042.94;5082319;28;20450;-63
2022/06/10 09:46:34;;;;;;;5.28;1.60;;;;;;;21.13;49.72;102055.50;5126157;28;20028;-63
2022/06/10 09:49:26;;;;;;;2.05;0.95;;;;;;;21.09;49.95;102053.28;5107961;28;20031;-63
2022/06/10 09:52:15;;;;;;;2.42;0.90;;;;;;;21.12;50.11;102059.22;5125808;28;20058;-63
2022/06/10 09:54:52;;;;;;;1.95;0.80;;;;;;;21.12;49.85;102058.38;5108088;28;20034;-63
2022/06/10 09:57:33;;;;;;;2.72;1.33;;;;;;;21.13;49.84;102060.06;5123693;28;20475;-63
2022/06/10 10:00:11;;;;;;;2.40;1.10;;;;;;;21.10;50.14;102055.81;5125593;28;20020;-63
2022/06/10 10:02:42;;;;;;;2.07;0.90;;;;;;;21.12;49.80;102052.97;5108204;28;20073;-63
2022/06/10 10:05:17;;;;;;;4.00;1.10;;;;;;;21.13;50.09;102049.25;5125908;28;20036;-63
2022/06/10 10:08:07;;;;;;;2.75;1.08;;;;;;;21.14;49.96;102054.50;5125894;28;20088;-64
2022/06/10 10:10:39;;;;;;;1.90;0.85;;;;;;;21.10;50.13;102042.28;5117656;28;20128;-63
2022/06/10 10:13:34;;;;;;;3.00;0.93;;;;;;;21.16;50.17;102048.94;5086572;28;20085;-62
2022/06/10 10:16:24;;;;;;;2.08;0.80;;;;;;;21.19;50.13;102048.63;5105344;28;20032;-63
2022/06/10 10:19:10;;;;;;;2.17;1.00;;;;;;;21.20;49.83;102039.53;5105280;28;20046;-63
2022/06/10 10:22:03;;;;;;;2.05;0.90;;;;;;;21.22;49.91;102043.75;5087099;28;20032;-63
2022/06/10 10:24:34;;;;;;;2.40;1.00;;;;;;;21.23;49.75;102039.19;5107870;28;20024;-63
2022/06/10 10:27:00;;;;;;;1.42;0.82;;;;;;;21.23;49.99;102047.28;5091317;28;20032;-63
2022/06/10 10:29:30;;;;;;;1.90;0.85;;;;;;;21.23;49.75;102045.44;5109065;28;20575;-63
2022/06/10 10:32:04;;;;;;;2.20;0.77;;;;;;;21.25;50.00;102045.31;5091091;28;20035;-63
2022/06/10 10:34:36;;;;;;;2.40;1.00;;;;;;;21.26;49.67;102047.00;5091176;28;20105;-63
2022/06/10 10:37:05;;;;;;;2.63;0.90;;;;;;;21.27;49.95;102047.84;5109277;28;20028;-63
2022/06/10 10:39:38;;;;;;;1.83;1.00;;;;;;;21.19;49.80;102022.41;5091237;28;20035;-63
2022/06/10 10:42:06;;;;;;;2.95;1.13;;;;;;;21.26;49.74;102036.19;5108582;28;20048;-63
2022/06/10 10:44:32;;;;;;;2.22;0.80;;;;;;;21.30;49.96;102042.13;5108654;28;20465;-63
2022/06/10 10:47:00;;;;;;;2.35;1.33;;;;;;;21.29;50.00;102035.88;5109147;28;20087;-63
2022/06/10 10:49:34;;;;;;;2.15;1.08;;;;;;;21.30;49.77;102042.13;5108859;28;20024;-62
2022/06/10 10:52:07;;;;;;;1.95;0.90;;;;;;;21.30;49.68;102045.69;5090578;28;20111;-63
2022/06/10 10:54:34;;;;;;;4.90;0.95;;;;;;;21.29;49.96;102048.56;5090708;28;20085;-63
2022/06/10 10:57:00;;;;;;;2.95;0.88;;;;;;;21.29;49.98;102049.41;5090636;28;20052;-64
2022/06/10 10:59:31;;;;;;;3.47;1.20;;;;;;;21.29;49.88;102043.13;5108380;28;20048;-63
2022/06/10 11:01:57;;;;;;;2.72;1.27;;;;;;;21.29;49.76;102037.72;5090541;28;20028;-63
2022/06/10 11:04:32;;;;;;;2.72;0.93;;;;;;;21.28;49.98;102044.13;5108755;28;20048;-64
2022/06/10 11:06:59;;;;;;;1.77;0.85;;;;;;;21.28;49.81;102045.00;5108570;28;20028;-63
2022/06/10 11:09:26;;;;;;;2.38;0.80;;;;;;;21.27;49.79;102051.38;5108382;28;20080;-63
2022/06/10 11:11:52;;;;;;;4.13;0.90;;;;;;;21.27;50.10;102048.69;5108813;28;20042;-63
2022/06/10 11:14:19;;;;;;;4.18;1.20;;;;;;;21.27;49.84;102055.94;5107415;28;20035;-64
2022/06/10 11:17:13;;;;;;;1.52;0.80;;;;;;;21.28;49.95;102063.94;5090479;28;20043;-63
2022/06/10 11:19:44;;;;;;;2.72;1.10;;;;;;;21.28;50.01;102052.25;5108443;28;20016;-62
2022/06/10 11:22:21;;;;;;;2.70;1.15;;;;;;;21.22;49.95;102043.75;5108095;28;20028;-62
2022/06/10 11:24:51;;;;;;;2.03;0.98;;;;;;;21.28;49.95;102057.66;5108431;28;20030;-62
2022/06/10 11:27:35;;;;;;;3.40;1.13;;;;;;;21.29;49.90;102064.78;5090324;28;20028;-62
2022/06/10 11:30:06;;;;;;;1.55;0.88;;;;;;;21.29;50.03;102064.78;5089909;28;20107;-63
2022/06/10 11:32:39;;;;;;;3.78;1.58;;;;;;;21.11;49.98;102029.63;5107612;28;20028;-63
2022/06/10 11:35:31;;;;;;;2.88;1.00;;;;;;;21.28;50.35;102057.66;5108089;28;20027;-63
2022/06/10 11:38:03;;;;;;;3.58;1.25;;;;;;;21.27;50.09;102059.50;5090163;28;20107;-62
2022/06/10 11:40:37;;;;;;;4.00;1.05;;;;;;;21.27;50.28;102064.06;5072705;28;20100;-62
2022/06/10 11:43:16;;;;;;;2.45;1.10;;;;;;;21.26;50.42;102059.69;5107412;28;20024;-62
2022/06/10 11:45:44;;;;;;;;;;;;;;;21.24;50.34;102057.13;5090620;28;20042;-63
2022/06/10 11:48:13;;;;;;;;;;;;;;;21.25;50.24;102053.41;5090563;28;19995;-63
2022/06/10 11:50:53;;;;;;;2.42;0.98;;;;;;;21.24;50.26;102059.84;5107993;28;19979;-63